Time;durP1;ratioP1;P1;durP2;ratioP2;P2;SDS_P1;SDS_P2;PMS_P1;PMS_P2;Temp;Humidity;BMP_temperature;BMP_pressure;BME280_temperature;BME280_humidity;BME280_pressure;Samples;Min_cycle;Max_cycle;Signal;HPM_P1;HPM_P2
2022/11/02 00:00:50;;;;;;;;;0.40;0.40;;;;;;;;5223517;28;8863;-74
2022/11/02 00:03:21;;;;;;;;;1.00;1.00;;;;;;;;5222298;28;8910;-74
2022/11/02 00:05:52;;;;;;;;;0.00;0.00;;;;;;;;5187309;28;8779;-75
2022/11/02 00:08:23;;;;;;;;;0.00;0.00;;;;;;;;5222051;27;8759;-74
2022/11/02 00:10:54;;;;;;;;;0.25;0.25;;;;;;;;5204948;28;9497;-74
2022/11/02 00:13:25;;;;;;;;;1.00;1.00;;;;;;;;5222095;28;9117;-74
2022/11/02 00:15:59;;;;;;;;;0.00;0.00;;;;;;;;5205835;28;8807;-74
2022/11/02 00:18:51;;;;;;;;;0.00;0.00;;;;;;;;5223516;27;8883;-75
2022/11/02 00:21:23;;;;;;;;;6.80;6.80;;;;;;;;5222331;28;8815;-78
2022/11/02 00:24:12;;;;;;;;;0.20;0.20;;;;;;;;5223288;28;8774;-78
2022/11/02 00:26:43;;;;;;;;;4.00;2.80;;;;;;;;5203864;28;8870;-79
2022/11/02 00:29:14;;;;;;;;;1.00;1.00;;;;;;;;5185369;28;8785;-79
2022/11/02 00:31:45;;;;;;;;;0.80;0.80;;;;;;;;5184979;28;8904;-79
2022/11/02 00:34:16;;;;;;;;;0.00;0.00;;;;;;;;5203313;28;8936;-77
2022/11/02 00:36:47;;;;;;;;;0.00;0.00;;;;;;;;5181825;28;8914;-78
2022/11/02 00:39:18;;;;;;;;;0.20;0.20;;;;;;;;5202016;28;11437;-78
2022/11/02 00:41:49;;;;;;;;;1.00;1.00;;;;;;;;5202034;28;9499;-77
2022/11/02 00:44:20;;;;;;;;;1.00;1.00;;;;;;;;5200997;28;8782;-78
2022/11/02 00:46:51;;;;;;;;;1.00;1.00;;;;;;;;5184508;28;11366;-77
2022/11/02 00:49:22;;;;;;;;;1.00;1.00;;;;;;;;5184553;28;8808;-77
2022/11/02 00:51:54;;;;;;;;;0.60;0.60;;;;;;;;5170705;28;8862;-77
2022/11/02 00:54:26;;;;;;;;;1.40;1.40;;;;;;;;5221327;28;8779;-78
2022/11/02 00:56:58;;;;;;;;;1.80;1.80;;;;;;;;5221528;28;8770;-78
2022/11/02 00:59:29;;;;;;;;;1.60;1.60;;;;;;;;5188746;28;8794;-77
2022/11/02 01:02:19;;;;;;;;;1.20;1.20;;;;;;;;5222544;28;8807;-77
2022/11/02 01:04:50;;;;;;;;;1.00;1.00;;;;;;;;5219729;28;8937;-78
2022/11/02 01:07:22;;;;;;;;;5.80;5.20;;;;;;;;5204833;28;9753;-77
2022/11/02 01:09:53;;;;;;;;;5.80;5.80;;;;;;;;5222579;28;8783;-76
2022/11/02 01:12:24;;;;;;;;;0.00;0.00;;;;;;;;5176337;28;8884;-76
2022/11/02 01:14:55;;;;;;;;;0.00;0.00;;;;;;;;5163627;28;8796;-76
2022/11/02 01:17:26;;;;;;;;;1.50;1.50;;;;;;;;5179968;28;8812;-77
2022/11/02 01:19:57;;;;;;;;;1.00;1.00;;;;;;;;5180293;28;11416;-76
2022/11/02 01:22:46;;;;;;;;;0.00;0.00;;;;;;;;5166533;28;9133;-76
2022/11/02 01:25:17;;;;;;;;;1.00;1.00;;;;;;;;5163750;28;9665;-77
2022/11/02 01:27:48;;;;;;;;;0.20;0.20;;;;;;;;5205564;28;8799;-77
2022/11/02 01:30:19;;;;;;;;;0.00;0.00;;;;;;;;5221594;28;8833;-76
2022/11/02 01:32:50;;;;;;;;;0.00;0.00;;;;;;;;5209510;28;8785;-77
2022/11/02 01:35:21;;;;;;;;;0.00;0.00;;;;;;;;5201511;28;11439;-75
2022/11/02 01:38:10;;;;;;;;;0.00;0.00;;;;;;;;5186577;28;8786;-75
2022/11/02 01:40:41;;;;;;;;;0.00;0.00;;;;;;;;5167627;28;8821;-75
2022/11/02 01:43:22;;;;;;;;;0.00;0.00;;;;;;;;5204537;28;8812;-74
2022/11/02 01:46:12;;;;;;;;;0.00;0.00;;;;;;;;5187609;28;8824;-74
2022/11/02 01:48:43;;;;;;;;;0.00;0.00;;;;;;;;5170910;28;8789;-75
2022/11/02 01:51:18;;;;;;;;;0.00;0.00;;;;;;;;5183453;28;8796;-75
2022/11/02 01:53:50;;;;;;;;;0.00;0.00;;;;;;;;5167191;28;8771;-76
2022/11/02 01:56:22;;;;;;;;;10.80;10.80;;;;;;;;5150850;28;8776;-75
2022/11/02 01:58:57;;;;;;;;;0.00;0.00;;;;;;;;5167006;28;8775;-75
2022/11/02 02:01:28;;;;;;;;;0.00;0.00;;;;;;;;5167108;28;8825;-75
2022/11/02 02:04:00;;;;;;;;;0.00;0.00;;;;;;;;5171916;28;8816;-76
2022/11/02 02:06:32;;;;;;;;;0.00;0.00;;;;;;;;5199766;28;8851;-75
2022/11/02 02:09:03;;;;;;;;;0.00;0.00;;;;;;;;5191180;28;8905;-75
2022/11/02 02:11:38;;;;;;;;;0.00;0.00;;;;;;;;5219833;27;8797;-75
2022/11/02 02:14:14;;;;;;;;;2.80;2.80;;;;;;;;5187316;28;8793;-75
2022/11/02 02:17:03;;;;;;;;;1.80;1.80;;;;;;;;5203592;28;8782;-75
2022/11/02 02:19:41;;;;;;;;;1.00;1.00;;;;;;;;5186794;28;8813;-75
2022/11/02 02:22:22;;;;;;;;;15.80;15.80;;;;;;;;5186856;28;8878;-75
2022/11/02 02:25:05;;;;;;;;;2.00;2.00;;;;;;;;5186835;28;8823;-73
2022/11/02 02:27:55;;;;;;;;;2.00;2.00;;;;;;;;5184265;28;8822;-73
2022/11/02 02:30:27;;;;;;;;;0.60;0.60;;;;;;;;5223771;28;8824;-73
2022/11/02 02:33:07;;;;;;;;;9.00;9.00;;;;;;;;5207830;28;8793;-73
2022/11/02 02:35:59;;;;;;;;;2.00;2.00;;;;;;;;5170444;28;8804;-73
2022/11/02 02:38:33;;;;;;;;;4.80;4.80;;;;;;;;5203212;28;8794;-73
2022/11/02 02:41:19;;;;;;;;;3.60;3.60;;;;;;;;5202864;28;9542;-73
2022/11/02 02:43:53;;;;;;;;;7.40;7.40;;;;;;;;5170501;28;8769;-74
2022/11/02 02:46:53;;;;;;;;;0.00;0.00;;;;;;;;5170105;28;8797;-74
2022/11/02 02:49:27;;;;;;;;;3.20;3.20;;;;;;;;5202808;28;9565;-75
2022/11/02 02:52:00;;;;;;;;;1.60;1.60;;;;;;;;5205391;28;8994;-75
2022/11/02 02:54:35;;;;;;;;;2.80;2.80;;;;;;;;5222106;28;9536;-74
2022/11/02 02:57:26;;;;;;;;;0.60;0.60;;;;;;;;5224556;28;8759;-74
2022/11/02 03:00:17;;;;;;;;;0.80;0.80;;;;;;;;5223911;28;8767;-74
2022/11/02 03:03:06;;;;;;;;;0.00;0.00;;;;;;;;5209173;28;8786;-76
2022/11/02 03:06:14;;;;;;;;;2.00;2.00;;;;;;;;5221733;28;9589;-76
2022/11/02 03:09:12;;;;;;;;;2.00;2.00;;;;;;;;5205966;28;9483;-77
2022/11/02 03:12:26;;;;;;;;;1.40;1.40;;;;;;;;5214575;28;8834;-75
2022/11/02 03:15:10;;;;;;;;;1.00;1.00;;;;;;;;5223237;28;8849;-76
2022/11/02 03:17:46;;;;;;;;;1.40;1.40;;;;;;;;5206329;28;8838;-75
2022/11/02 03:20:38;;;;;;;;;3.60;3.60;;;;;;;;5223218;28;8791;-76
2022/11/02 03:23:38;;;;;;;;;1.60;1.60;;;;;;;;5223270;27;8807;-76
2022/11/02 03:26:32;;;;;;;;;2.00;2.00;;;;;;;;5208565;28;8790;-72
2022/11/02 03:29:25;;;;;;;;;8.00;8.00;;;;;;;;5223062;28;8751;-73
2022/11/02 03:32:06;;;;;;;;;0.00;0.00;;;;;;;;5188280;28;8828;-75
2022/11/02 03:34:50;;;;;;;;;4.00;4.00;;;;;;;;5165495;28;9502;-75
2022/11/02 03:37:34;;;;;;;;;1.00;1.00;;;;;;;;5165624;28;8780;-75
2022/11/02 03:40:25;;;;;;;;;2.00;2.00;;;;;;;;5181711;28;9557;-78
2022/11/02 03:42:59;;;;;;;;;1.80;1.80;;;;;;;;5185630;28;9571;-76
2022/11/02 03:45:51;;;;;;;;;1.00;1.00;;;;;;;;5202331;28;8795;-79
2022/11/02 03:48:26;;;;;;;;;1.00;1.00;;;;;;;;5185443;28;8783;-80
2022/11/02 03:50:59;;;;;;;;;1.00;1.00;;;;;;;;5178148;28;8798;-80
2022/11/02 03:53:36;;;;;;;;;4.40;4.40;;;;;;;;5223608;28;8778;-79
2022/11/02 03:56:11;;;;;;;;;2.40;2.40;;;;;;;;5189634;28;8807;-80
2022/11/02 03:58:43;;;;;;;;;1.00;1.00;;;;;;;;5206101;28;8767;-75
2022/11/02 04:01:16;;;;;;;;;2.00;2.00;;;;;;;;5205778;28;8806;-76
2022/11/02 04:03:48;;;;;;;;;3.80;3.80;;;;;;;;5206001;28;8818;-76
2022/11/02 04:06:22;;;;;;;;;1.20;1.20;;;;;;;;5202994;28;9620;-76
2022/11/02 04:09:11;;;;;;;;;0.40;0.40;;;;;;;;5208412;28;9577;-76
2022/11/02 04:14:37;;;;;;;;;1.00;1.00;;;;;;;;5165294;28;9575;-79
2022/11/02 04:20:01;;;;;;;;;0.20;0.20;;;;;;;;5164711;28;8804;-77
2022/11/02 04:25:23;;;;;;;;;0.00;0.00;;;;;;;;5164986;28;8807;-77
2022/11/02 04:28:17;;;;;;;;;6.80;6.80;;;;;;;;5200632;28;8815;-76
2022/11/02 04:30:59;;;;;;;;;13.40;13.40;;;;;;;;5207405;28;8773;-76
2022/11/02 04:33:34;;;;;;;;;4.60;4.60;;;;;;;;5204839;28;8805;-75
2022/11/02 04:36:19;;;;;;;;;1.40;1.40;;;;;;;;5207436;28;8905;-76
2022/11/02 04:38:56;;;;;;;;;2.00;2.00;;;;;;;;5189650;28;8795;-76
2022/11/02 04:41:43;;;;;;;;;12.00;11.20;;;;;;;;5187176;28;8824;-78
2022/11/02 04:44:20;;;;;;;;;0.00;0.00;;;;;;;;5181873;28;8784;-77
2022/11/02 04:47:00;;;;;;;;;7.80;7.80;;;;;;;;5165503;28;8780;-77
2022/11/02 04:49:34;;;;;;;;;0.00;0.00;;;;;;;;5215488;28;9541;-76
2022/11/02 04:52:08;;;;;;;;;8.60;8.60;;;;;;;;5177781;28;8811;-74
2022/11/02 04:54:42;;;;;;;;;1.00;1.00;;;;;;;;5200829;28;8783;-74
2022/11/02 04:57:13;;;;;;;;;2.40;2.40;;;;;;;;5168369;28;9528;-73
2022/11/02 04:59:44;;;;;;;;;0.00;0.00;;;;;;;;5184411;28;8825;-72
2022/11/02 05:02:17;;;;;;;;;0.00;0.00;;;;;;;;5184578;28;8848;-72
2022/11/02 05:04:48;;;;;;;;;3.60;3.60;;;;;;;;5186270;28;8816;-72
2022/11/02 05:07:19;;;;;;;;;6.80;6.80;;;;;;;;5222157;28;8783;-70
2022/11/02 05:10:09;;;;;;;;;4.80;4.80;;;;;;;;5180199;28;8788;-71
2022/11/02 05:12:42;;;;;;;;;8.40;8.00;;;;;;;;5164108;28;8791;-71
2022/11/02 05:15:15;;;;;;;;;4.00;4.00;;;;;;;;5163989;28;8803;-71
2022/11/02 05:17:47;;;;;;;;;0.40;0.40;;;;;;;;5172976;28;8832;-72
2022/11/02 05:20:38;;;;;;;;;3.20;3.20;;;;;;;;5184677;28;8799;-78
2022/11/02 05:23:09;;;;;;;;;1.60;1.60;;;;;;;;5191912;28;8808;-79
2022/11/02 05:25:42;;;;;;;;;0.00;0.00;;;;;;;;5173308;28;8807;-79
2022/11/02 05:28:14;;;;;;;;;4.20;4.20;;;;;;;;5170431;28;8904;-79
2022/11/02 05:30:46;;;;;;;;;1.20;1.20;;;;;;;;5170807;28;8793;-78
2022/11/02 05:33:37;;;;;;;;;7.60;7.60;;;;;;;;5188377;28;8913;-77
2022/11/02 05:36:15;;;;;;;;;5.20;5.20;;;;;;;;5187096;28;8813;-79
2022/11/02 05:38:53;;;;;;;;;10.80;10.80;;;;;;;;5192704;28;8802;-80
2022/11/02 05:41:45;;;;;;;;;1.60;1.60;;;;;;;;5187959;28;8904;-83
2022/11/02 05:44:36;;;;;;;;;5.00;5.00;;;;;;;;5174553;28;9649;-79
2022/11/02 05:47:27;;;;;;;;;2.00;2.00;;;;;;;;5200477;28;8853;-78
2022/11/02 05:50:00;;;;;;;;;8.00;8.00;;;;;;;;5191568;28;8779;-79
2022/11/02 05:52:32;;;;;;;;;2.00;2.00;;;;;;;;5217576;27;8783;-80
2022/11/02 05:55:23;;;;;;;;;1.00;1.00;;;;;;;;5189923;28;8814;-80
2022/11/02 05:57:55;;;;;;;;;6.40;6.40;;;;;;;;5171141;28;8793;-79
2022/11/02 06:00:27;;;;;;;;;9.80;9.00;;;;;;;;5187214;28;8790;-78
2022/11/02 06:02:59;;;;;;;;;11.20;11.00;;;;;;;;5187260;28;8786;-80
2022/11/02 06:05:32;;;;;;;;;5.00;5.00;;;;;;;;5170787;28;9547;-81
2022/11/02 06:08:22;;;;;;;;;4.40;4.40;;;;;;;;5210215;28;9540;-79
2022/11/02 06:11:14;;;;;;;;;2.40;2.40;;;;;;;;5210074;28;8813;-81
2022/11/02 06:13:48;;;;;;;;;4.20;4.20;;;;;;;;5207856;28;8791;-78
2022/11/02 06:16:19;;;;;;;;;1.80;1.80;;;;;;;;5226591;28;8795;-72
2022/11/02 06:18:52;;;;;;;;;1.60;1.60;;;;;;;;5191846;28;8937;-77
2022/11/02 06:21:25;;;;;;;;;4.00;4.00;;;;;;;;5192359;28;8827;-80
2022/11/02 06:23:58;;;;;;;;;9.60;8.80;;;;;;;;5193881;28;8793;-81
2022/11/02 06:26:31;;;;;;;;;7.60;7.60;;;;;;;;5213144;28;8806;-77
2022/11/02 06:29:03;;;;;;;;;1.00;1.00;;;;;;;;5206969;28;8787;-80
2022/11/02 06:31:34;;;;;;;;;4.60;4.60;;;;;;;;5190677;28;8790;-77
2022/11/02 06:34:07;;;;;;;;;2.00;2.00;;;;;;;;5206958;28;9533;-77
2022/11/02 06:36:39;;;;;;;;;6.80;6.80;;;;;;;;5207380;28;8933;-78
2022/11/02 06:39:11;;;;;;;;;7.20;7.20;;;;;;;;5190896;28;8851;-77
2022/11/02 06:41:43;;;;;;;;;1.00;1.00;;;;;;;;5172375;28;8888;-81
2022/11/02 06:44:15;;;;;;;;;2.00;2.00;;;;;;;;5166176;28;8788;-76
2022/11/02 06:46:48;;;;;;;;;0.00;0.00;;;;;;;;5177754;28;9605;-77
2022/11/02 06:49:20;;;;;;;;;4.20;4.20;;;;;;;;5188933;28;8821;-80
2022/11/02 06:51:51;;;;;;;;;6.00;6.00;;;;;;;;5190492;28;8809;-73
2022/11/02 06:54:22;;;;;;;;;6.80;6.80;;;;;;;;5224285;27;8787;-73
2022/11/02 06:56:54;;;;;;;;;0.00;0.00;;;;;;;;5209085;28;8789;-72
2022/11/02 06:59:25;;;;;;;;;1.50;1.50;;;;;;;;5182164;28;8800;-73
2022/11/02 07:02:14;;;;;;;;;1.20;1.20;;;;;;;;5175636;28;10093;-73
2022/11/02 07:04:45;;;;;;;;;1.60;1.60;;;;;;;;5185829;28;8775;-73
2022/11/02 07:07:16;;;;;;;;;0.00;0.00;;;;;;;;5203130;28;8762;-73
2022/11/02 07:10:09;;;;;;;;;0.00;0.00;;;;;;;;5203776;28;9841;-72
2022/11/02 07:12:40;;;;;;;;;2.40;2.40;;;;;;;;5202266;28;8826;-73
2022/11/02 07:15:11;;;;;;;;;0.20;0.20;;;;;;;;5181672;28;8800;-72
2022/11/02 07:17:42;;;;;;;;;1.20;1.20;;;;;;;;5165154;28;8779;-72
2022/11/02 07:20:13;;;;;;;;;0.00;0.00;;;;;;;;5181938;28;8805;-73
2022/11/02 07:22:51;;;;;;;;;5.80;5.60;;;;;;;;5181698;28;10905;-72
2022/11/02 07:25:23;;;;;;;;;0.40;0.00;;;;;;;;5181616;28;8927;-73
2022/11/02 07:27:54;;;;;;;;;5.20;5.20;;;;;;;;5165018;28;8764;-72
2022/11/02 07:30:25;;;;;;;;;1.25;1.25;;;;;;;;5169857;28;8794;-74
2022/11/02 07:32:56;;;;;;;;;4.20;4.00;;;;;;;;5169265;28;11194;-73
2022/11/02 07:35:27;;;;;;;;;0.00;0.00;;;;;;;;5185638;28;8793;-71
2022/11/02 07:37:59;;;;;;;;;5.00;5.00;;;;;;;;5169254;28;8897;-72
2022/11/02 07:40:52;;;;;;;;;5.00;5.00;;;;;;;;5201237;28;9550;-70
2022/11/02 07:43:23;;;;;;;;;1.40;1.40;;;;;;;;5201785;28;9516;-69
2022/11/02 07:46:03;;;;;;;;;4.00;4.00;;;;;;;;5201957;28;8808;-72
2022/11/02 07:48:34;;;;;;;;;4.20;4.20;;;;;;;;5169092;28;8773;-72
2022/11/02 07:51:24;;;;;;;;;0.20;0.20;;;;;;;;5202676;28;8797;-72
2022/11/02 07:53:55;;;;;;;;;0.00;0.00;;;;;;;;5169323;28;8857;-72
2022/11/02 07:56:26;;;;;;;;;4.00;4.00;;;;;;;;5202904;28;8777;-71
2022/11/02 07:58:58;;;;;;;;;5.00;5.00;;;;;;;;5201314;28;8805;-71
2022/11/02 08:01:29;;;;;;;;;3.20;3.20;;;;;;;;5184789;28;8817;-70
2022/11/02 08:04:00;;;;;;;;;1.00;1.00;;;;;;;;5203141;28;8827;-71
2022/11/02 08:06:30;;;;;;;;;1.00;1.00;;;;;;;;5201240;28;8800;-71
2022/11/02 08:09:02;;;;;;;;;4.00;4.00;;;;;;;;5168569;28;8789;-70
2022/11/02 08:11:32;;;;;;;;;4.20;4.20;;;;;;;;5184826;28;11434;-70
2022/11/02 08:14:03;;;;;;;;;5.00;5.00;;;;;;;;5202232;28;8797;-71
2022/11/02 08:16:52;;;;;;;;;3.40;3.40;;;;;;;;5201631;28;10779;-71
2022/11/02 08:19:41;;;;;;;;;4.40;4.40;;;;;;;;5200824;28;9698;-71
2022/11/02 08:22:12;;;;;;;;;5.50;5.50;;;;;;;;5200911;28;8963;-71
2022/11/02 08:24:43;;;;;;;;;1.00;1.00;;;;;;;;5201575;28;8781;-71
2022/11/02 08:27:14;;;;;;;;;5.50;5.50;;;;;;;;5201373;28;9542;-72
2022/11/02 08:29:45;;;;;;;;;5.75;5.75;;;;;;;;5199704;28;8794;-70
2022/11/02 08:32:16;;;;;;;;;7.50;7.50;;;;;;;;5192937;28;11452;-71
2022/11/02 08:34:47;;;;;;;;;0.00;0.00;;;;;;;;5185199;28;9393;-71
2022/11/02 08:37:18;;;;;;;;;0.80;0.80;;;;;;;;5201604;28;11511;-71
2022/11/02 08:39:49;;;;;;;;;3.50;3.50;;;;;;;;5201034;28;8795;-71
2022/11/02 08:42:20;;;;;;;;;1.00;1.00;;;;;;;;5184562;28;11569;-74
2022/11/02 08:44:51;;;;;;;;;0.00;0.00;;;;;;;;5168169;28;8783;-77
2022/11/02 08:47:40;;;;;;;;;4.00;4.00;;;;;;;;5187456;28;8783;-76
2022/11/02 08:50:11;;;;;;;;;5.00;5.00;;;;;;;;5169795;28;8779;-76
2022/11/02 08:52:42;;;;;;;;;6.00;5.80;;;;;;;;5167073;28;8797;-78
2022/11/02 08:55:14;;;;;;;;;5.60;5.60;;;;;;;;5167980;28;8793;-75
2022/11/02 08:57:46;;;;;;;;;1.00;1.00;;;;;;;;5168717;28;8774;-77
2022/11/02 09:00:17;;;;;;;;;4.20;4.20;;;;;;;;5184940;28;8915;-77
2022/11/02 09:03:02;;;;;;;;;1.00;1.00;;;;;;;;5200781;28;8956;-78
2022/11/02 09:05:35;;;;;;;;;2.80;2.80;;;;;;;;5168023;28;8774;-79
2022/11/02 09:08:09;;;;;;;;;1.80;1.80;;;;;;;;5167985;28;8790;-75
2022/11/02 09:10:59;;;;;;;;;1.40;1.40;;;;;;;;5186800;28;8801;-76
2022/11/02 09:13:30;;;;;;;;;6.20;6.20;;;;;;;;5184261;28;8774;-74
2022/11/02 09:16:01;;;;;;;;;1.50;0.75;;;;;;;;5167685;28;8804;-76
2022/11/02 09:18:33;;;;;;;;;5.00;5.00;;;;;;;;5167710;28;9282;-78
2022/11/02 09:21:04;;;;;;;;;8.00;8.00;;;;;;;;5165157;28;8829;-77
2022/11/02 09:23:35;;;;;;;;;2.00;2.00;;;;;;;;5184211;28;8828;-77
2022/11/02 09:26:06;;;;;;;;;2.80;2.80;;;;;;;;5165904;28;8804;-75
2022/11/02 09:28:56;;;;;;;;;2.60;2.60;;;;;;;;5184722;28;8793;-75
2022/11/02 09:31:29;;;;;;;;;1.00;1.00;;;;;;;;5166038;28;8798;-75
2022/11/02 09:34:19;;;;;;;;;4.00;4.00;;;;;;;;5184630;28;8821;-79
2022/11/02 09:36:50;;;;;;;;;1.00;1.00;;;;;;;;5165803;28;9523;-78
2022/11/02 09:39:39;;;;;;;;;4.40;4.40;;;;;;;;5184760;28;8805;-75
2022/11/02 09:42:10;;;;;;;;;3.20;3.20;;;;;;;;5165810;28;8832;-79
2022/11/02 09:44:57;;;;;;;;;4.00;3.50;;;;;;;;5165767;28;8796;-80
2022/11/02 09:47:30;;;;;;;;;1.00;1.00;;;;;;;;5165724;28;11374;-73
2022/11/02 09:50:23;;;;;;;;;0.00;0.00;;;;;;;;5184227;28;8797;-78
2022/11/02 09:53:01;;;;;;;;;0.60;0.60;;;;;;;;5198652;28;8797;-78
2022/11/02 09:55:35;;;;;;;;;0.00;0.00;;;;;;;;5250477;28;8801;-78
2022/11/02 09:58:12;;;;;;;;;4.60;4.60;;;;;;;;5177732;28;8811;-79
2022/11/02 10:01:08;;;;;;;;;1.00;1.00;;;;;;;;5164079;28;8831;-76
2022/11/02 10:03:39;;;;;;;;;0.80;0.80;;;;;;;;5163879;28;8846;-78
2022/11/02 10:06:29;;;;;;;;;3.20;3.20;;;;;;;;5167419;28;8816;-70
2022/11/02 10:09:09;;;;;;;;;1.00;1.00;;;;;;;;5165090;28;8780;-79
2022/11/02 10:11:50;;;;;;;;;1.80;1.80;;;;;;;;5165216;28;8796;-79
2022/11/02 10:14:23;;;;;;;;;2.00;2.00;;;;;;;;5181009;28;8861;-77
2022/11/02 10:17:03;;;;;;;;;2.00;2.00;;;;;;;;5164946;28;8938;-70
2022/11/02 10:19:37;;;;;;;;;0.60;0.60;;;;;;;;5180776;28;9578;-72
2022/11/02 10:22:11;;;;;;;;;8.60;8.60;;;;;;;;5180873;28;8823;-72
2022/11/02 10:24:44;;;;;;;;;1.00;1.00;;;;;;;;5164617;28;8784;-71
2022/11/02 10:27:36;;;;;;;;;1.00;1.00;;;;;;;;5182213;28;8780;-72
2022/11/02 10:30:18;;;;;;;;;3.40;3.40;;;;;;;;5180720;28;8796;-72
2022/11/02 10:32:51;;;;;;;;;0.40;0.40;;;;;;;;5164628;28;8822;-72
2022/11/02 10:35:40;;;;;;;;;4.00;4.00;;;;;;;;5180825;28;8988;-71
2022/11/02 10:38:18;;;;;;;;;4.20;4.20;;;;;;;;5181941;28;8772;-71
2022/11/02 10:40:48;;;;;;;;;5.00;5.00;;;;;;;;5180992;28;9630;-71
2022/11/02 10:43:38;;;;;;;;;8.00;8.00;;;;;;;;5180675;28;8776;-72
2022/11/02 10:46:21;;;;;;;;;3.40;3.40;;;;;;;;5180685;28;8828;-71
2022/11/02 10:49:07;;;;;;;;;4.60;4.60;;;;;;;;5164244;28;8776;-71
2022/11/02 10:51:41;;;;;;;;;5.00;5.00;;;;;;;;5192796;28;8815;-73
2022/11/02 10:54:13;;;;;;;;;3.60;3.60;;;;;;;;5200256;28;8793;-73
2022/11/02 10:56:46;;;;;;;;;2.00;2.00;;;;;;;;5186104;28;8788;-72
2022/11/02 10:59:35;;;;;;;;;1.60;1.60;;;;;;;;5202882;28;8773;-73
2022/11/02 11:02:09;;;;;;;;;3.50;3.50;;;;;;;;5202600;28;8821;-72
2022/11/02 11:04:40;;;;;;;;;5.80;5.80;;;;;;;;5203898;28;8875;-71
2022/11/02 11:07:22;;;;;;;;;5.20;5.20;;;;;;;;5202390;28;8869;-72
2022/11/02 11:09:54;;;;;;;;;9.00;8.00;;;;;;;;5203082;28;8816;-72
2022/11/02 11:12:45;;;;;;;;;2.00;1.20;;;;;;;;5202435;28;8803;-72
2022/11/02 11:15:24;;;;;;;;;2.00;2.00;;;;;;;;5185343;28;8769;-72
2022/11/02 11:17:55;;;;;;;;;8.00;7.20;;;;;;;;5203465;28;8823;-72
2022/11/02 11:20:34;;;;;;;;;10.40;10.00;;;;;;;;5203389;28;8924;-72
2022/11/02 11:23:15;;;;;;;;;4.80;4.40;;;;;;;;5202103;28;8836;-72
2022/11/02 11:25:54;;;;;;;;;7.80;7.80;;;;;;;;5185907;28;8842;-72
2022/11/02 11:28:25;;;;;;;;;4.00;4.00;;;;;;;;5202097;28;8807;-72
2022/11/02 11:31:05;;;;;;;;;5.00;5.00;;;;;;;;5203423;28;8765;-72
2022/11/02 11:33:41;;;;;;;;;8.60;8.60;;;;;;;;5202795;28;11420;-72
2022/11/02 11:36:19;;;;;;;;;8.40;8.40;;;;;;;;5203692;28;8765;-72
2022/11/02 11:38:51;;;;;;;;;8.60;8.60;;;;;;;;5186056;28;8809;-72
2022/11/02 11:41:23;;;;;;;;;5.60;5.60;;;;;;;;5202791;28;8844;-72
2022/11/02 11:43:54;;;;;;;;;2.00;2.00;;;;;;;;5202924;28;8944;-72
2022/11/02 11:46:37;;;;;;;;;1.60;1.60;;;;;;;;5185642;28;9495;-71
2022/11/02 11:49:30;;;;;;;;;1.80;1.80;;;;;;;;5185602;28;8817;-71
2022/11/02 11:52:04;;;;;;;;;3.40;3.40;;;;;;;;5201405;28;8874;-71
2022/11/02 11:54:36;;;;;;;;;1.80;1.80;;;;;;;;5202783;28;8788;-71
2022/11/02 11:57:29;;;;;;;;;6.00;6.00;;;;;;;;5202758;28;8789;-71
2022/11/02 12:00:26;;;;;;;;;6.00;6.00;;;;;;;;5202978;28;8892;-70
2022/11/02 12:03:10;;;;;;;;;2.00;2.00;;;;;;;;5201783;28;8829;-70
2022/11/02 12:05:47;;;;;;;;;0.80;0.80;;;;;;;;5202673;28;8765;-70
2022/11/02 12:08:26;;;;;;;;;8.80;8.80;;;;;;;;5202493;28;8905;-71
2022/11/02 12:11:03;;;;;;;;;5.80;5.80;;;;;;;;5202293;28;8789;-71
2022/11/02 12:14:22;;;;;;;;;1.40;1.40;;;;;;;;5203094;28;8762;-71
2022/11/02 12:17:11;;;;;;;;;11.40;11.40;;;;;;;;5210740;28;8811;-71
2022/11/02 12:19:42;;;;;;;;;9.60;9.60;;;;;;;;5200896;28;8799;-71
2022/11/02 12:22:16;;;;;;;;;12.00;12.00;;;;;;;;5196015;28;8806;-71
2022/11/02 12:25:05;;;;;;;;;10.00;10.00;;;;;;;;5202650;28;9535;-72
2022/11/02 12:27:50;;;;;;;;;8.00;8.00;;;;;;;;5184624;28;9523;-71
2022/11/02 12:30:44;;;;;;;;;9.40;8.80;;;;;;;;5202542;28;8786;-71
2022/11/02 12:33:15;;;;;;;;;6.40;6.40;;;;;;;;5203557;28;9611;-71
2022/11/02 12:36:20;;;;;;;;;7.20;7.20;;;;;;;;5201437;28;8906;-71
2022/11/02 12:38:58;;;;;;;;;6.20;6.20;;;;;;;;5220473;28;8803;-71
2022/11/02 12:41:37;;;;;;;;;8.20;8.00;;;;;;;;5203398;28;8813;-71
2022/11/02 12:44:31;;;;;;;;;5.20;5.20;;;;;;;;5184942;28;8773;-70
2022/11/02 12:47:13;;;;;;;;;9.80;9.00;;;;;;;;5201528;28;8780;-70
2022/11/02 12:49:47;;;;;;;;;8.40;8.20;;;;;;;;5200999;28;8777;-70
2022/11/02 12:52:21;;;;;;;;;6.20;6.20;;;;;;;;5202611;28;9575;-70
2022/11/02 12:55:00;;;;;;;;;4.80;3.80;;;;;;;;5222651;27;8763;-70
2022/11/02 12:57:35;;;;;;;;;10.80;10.80;;;;;;;;5203279;28;8778;-71
2022/11/02 13:00:26;;;;;;;;;9.60;9.60;;;;;;;;5191874;28;8910;-72
2022/11/02 13:03:01;;;;;;;;;7.00;7.00;;;;;;;;5194380;28;8825;-71
2022/11/02 13:05:37;;;;;;;;;2.80;2.80;;;;;;;;5202841;28;8794;-71
2022/11/02 13:08:07;;;;;;;;;5.80;5.80;;;;;;;;5194382;28;8798;-71
2022/11/02 13:10:41;;;;;;;;;5.25;5.25;;;;;;;;5193820;28;8816;-71
2022/11/02 13:13:15;;;;;;;;;11.40;11.40;;;;;;;;5183768;28;8781;-70
2022/11/02 13:15:47;;;;;;;;;16.80;16.20;;;;;;;;5200493;28;8924;-70
2022/11/02 13:18:28;;;;;;;;;6.80;6.80;;;;;;;;5181790;28;8839;-71
2022/11/02 13:21:01;;;;;;;;;5.20;5.20;;;;;;;;5167601;28;8966;-69
2022/11/02 13:23:32;;;;;;;;;19.20;17.80;;;;;;;;5190418;28;8808;-69
2022/11/02 13:26:06;;;;;;;;;4.80;4.40;;;;;;;;5177365;28;8797;-71
2022/11/02 13:29:06;;;;;;;;;20.60;19.80;;;;;;;;5200855;28;8773;-71
2022/11/02 13:31:43;;;;;;;;;12.20;12.20;;;;;;;;5200476;28;8785;-70
2022/11/02 13:34:16;;;;;;;;;3.40;3.40;;;;;;;;5200321;28;8789;-71
2022/11/02 13:36:47;;;;;;;;;5.00;5.00;;;;;;;;5200771;28;8781;-71
2022/11/02 13:39:30;;;;;;;;;17.20;16.80;;;;;;;;5173070;28;8807;-71
2022/11/02 13:42:01;;;;;;;;;40.20;35.60;;;;;;;;5207702;28;8818;-72
2022/11/02 13:44:50;;;;;;;;;16.75;16.75;;;;;;;;5188096;27;8793;-72
2022/11/02 13:47:40;;;;;;;;;24.20;22.80;;;;;;;;5203840;28;11554;-71
2022/11/02 13:50:15;;;;;;;;;3.00;3.00;;;;;;;;5187561;27;8789;-72
2022/11/02 13:52:57;;;;;;;;;2.40;2.40;;;;;;;;5203400;28;8797;-72
2022/11/02 13:55:44;;;;;;;;;3.80;3.80;;;;;;;;5182695;27;8820;-72
2022/11/02 13:58:26;;;;;;;;;7.60;7.60;;;;;;;;5187861;28;9524;-72
2022/11/02 14:00:58;;;;;;;;;9.20;9.20;;;;;;;;5203762;28;8817;-71
2022/11/02 14:03:32;;;;;;;;;22.40;22.00;;;;;;;;5202397;28;8893;-71
2022/11/02 14:06:09;;;;;;;;;5.80;5.80;;;;;;;;5206930;28;8826;-72
2022/11/02 14:08:41;;;;;;;;;8.60;8.60;;;;;;;;5194667;28;8788;-71
2022/11/02 14:11:12;;;;;;;;;14.40;13.40;;;;;;;;5184291;28;8792;-70
2022/11/02 14:13:56;;;;;;;;;25.00;24.75;;;;;;;;5182902;28;8795;-71
2022/11/02 14:16:43;;;;;;;;;24.60;24.60;;;;;;;;5182786;28;8792;-70
2022/11/02 14:19:17;;;;;;;;;6.40;6.40;;;;;;;;5192588;28;9671;-71
2022/11/02 14:21:51;;;;;;;;;5.40;5.40;;;;;;;;5224674;27;8806;-70
2022/11/02 14:24:31;;;;;;;;;3.00;3.00;;;;;;;;5212992;28;8769;-71
2022/11/02 14:27:11;;;;;;;;;1.00;1.00;;;;;;;;5213585;28;8934;-70
2022/11/02 14:29:45;;;;;;;;;4.60;4.40;;;;;;;;5193445;28;8783;-70
2022/11/02 14:32:16;;;;;;;;;5.00;5.00;;;;;;;;5186767;28;8787;-71
2022/11/02 14:35:00;;;;;;;;;11.80;11.80;;;;;;;;5185467;28;9495;-71
2022/11/02 14:37:50;;;;;;;;;10.60;9.40;;;;;;;;5202653;28;8798;-72
2022/11/02 14:40:21;;;;;;;;;6.00;6.00;;;;;;;;5186458;28;8809;-72
2022/11/02 14:43:05;;;;;;;;;11.00;11.00;;;;;;;;5202260;28;8805;-71
2022/11/02 14:45:42;;;;;;;;;1.00;1.00;;;;;;;;5202684;28;10326;-69
2022/11/02 14:48:15;;;;;;;;;6.80;6.80;;;;;;;;5202216;28;8913;-72
2022/11/02 14:51:03;;;;;;;;;0.00;0.00;;;;;;;;5203687;28;8804;-71
2022/11/02 14:53:35;;;;;;;;;1.60;1.60;;;;;;;;5202504;28;8816;-70
2022/11/02 14:56:07;;;;;;;;;8.60;8.60;;;;;;;;5267623;27;8798;-72
2022/11/02 14:58:56;;;;;;;;;5.00;5.00;;;;;;;;5202528;28;8797;-71
2022/11/02 15:01:27;;;;;;;;;3.00;3.00;;;;;;;;5185679;28;8829;-71
2022/11/02 15:04:04;;;;;;;;;5.80;5.80;;;;;;;;5202046;28;8795;-72
2022/11/02 15:06:35;;;;;;;;;4.40;4.40;;;;;;;;5186335;28;9600;-72
2022/11/02 15:09:09;;;;;;;;;1.50;1.50;;;;;;;;5186255;28;8978;-71
2022/11/02 15:11:48;;;;;;;;;5.40;5.40;;;;;;;;5169804;28;11420;-72
2022/11/02 15:14:50;;;;;;;;;0.00;0.00;;;;;;;;5218234;27;8788;-71
2022/11/02 15:17:21;;;;;;;;;5.20;5.20;;;;;;;;5293054;27;8787;-70
2022/11/02 15:20:12;;;;;;;;;1.00;1.00;;;;;;;;5311915;27;8791;-70
2022/11/02 15:22:47;;;;;;;;;4.80;4.80;;;;;;;;5242982;28;9714;-69
2022/11/02 15:25:30;;;;;;;;;9.40;8.60;;;;;;;;5206223;28;8755;-69
2022/11/02 15:28:11;;;;;;;;;0.80;0.80;;;;;;;;5206041;28;8787;-70
2022/11/02 15:30:44;;;;;;;;;2.20;2.20;;;;;;;;5222391;28;8778;-70
2022/11/02 15:33:24;;;;;;;;;4.20;4.20;;;;;;;;5222205;28;8787;-68
2022/11/02 15:36:17;;;;;;;;;1.80;1.80;;;;;;;;5222654;28;8782;-71
2022/11/02 15:38:50;;;;;;;;;7.40;7.40;;;;;;;;5221342;27;8825;-70
2022/11/02 15:41:27;;;;;;;;;1.00;1.00;;;;;;;;5222139;28;8814;-69
2022/11/02 15:44:01;;;;;;;;;7.20;5.80;;;;;;;;5208664;28;8832;-71
2022/11/02 15:46:41;;;;;;;;;9.20;7.80;;;;;;;;5185676;28;8792;-69
2022/11/02 15:49:21;;;;;;;;;2.00;2.00;;;;;;;;5165757;28;8789;-69
2022/11/02 15:52:21;;;;;;;;;2.00;2.00;;;;;;;;5184718;28;8831;-73
2022/11/02 15:55:01;;;;;;;;;11.40;11.40;;;;;;;;5197601;28;8839;-69
2022/11/02 15:58:04;;;;;;;;;2.80;2.00;;;;;;;;5165763;28;8949;-69
2022/11/02 16:00:35;;;;;;;;;9.20;9.00;;;;;;;;5179942;28;9605;-71
2022/11/02 16:03:07;;;;;;;;;4.80;4.60;;;;;;;;5197252;28;8843;-71
2022/11/02 16:05:43;;;;;;;;;6.00;6.00;;;;;;;;5200411;28;9647;-71